createdAt,value
2023-12-11T00:01:14.112Z,4.22
2023-12-11T00:03:40.908Z,9.65
2023-12-11T00:06:07.872Z,8.93
2023-12-11T00:08:34.409Z,6.20
2023-12-11T00:11:00.943Z,7.10
2023-12-11T00:13:27.448Z,8.25
2023-12-11T00:15:54.637Z,8.10
2023-12-11T00:18:21.295Z,7.13
2023-12-11T00:20:47.907Z,7.65
2023-12-11T00:23:14.350Z,5.55
2023-12-11T00:25:47.129Z,8.73
2023-12-11T00:28:13.842Z,9.25
2023-12-11T00:30:40.452Z,6.63
2023-12-11T00:33:07.218Z,5.57
2023-12-11T00:35:33.704Z,6.45
2023-12-11T00:38:00.224Z,6.15
2023-12-11T00:40:26.842Z,4.70
2023-12-11T00:42:53.461Z,6.07
2023-12-11T00:45:20.036Z,5.90
2023-12-11T00:47:46.545Z,6.85
2023-12-11T00:50:13.124Z,4.78
2023-12-11T00:52:39.674Z,7.40
2023-12-11T00:55:07.065Z,6.13
2023-12-11T00:57:33.761Z,6.78
2023-12-11T01:00:00.530Z,7.70
2023-12-11T01:02:27.074Z,7.72
2023-12-11T01:04:53.614Z,5.85
2023-12-11T01:07:20.110Z,8.02
2023-12-11T01:09:46.595Z,9.55
2023-12-11T01:12:13.126Z,5.40
2023-12-11T01:14:39.567Z,8.50
2023-12-11T01:17:36.455Z,9.43
2023-12-11T01:19:52.679Z,7.07
2023-12-11T01:22:19.214Z,8.23
2023-12-11T01:24:45.705Z,6.47
2023-12-11T01:27:12.191Z,9.07
2023-12-11T01:29:38.695Z,8.88
2023-12-11T01:32:05.726Z,8.60
2023-12-11T01:34:32.445Z,6.72
2023-12-11T01:36:59.035Z,8.15
2023-12-11T01:39:25.502Z,5.13
2023-12-11T01:41:51.922Z,6.38
2023-12-11T01:44:19.988Z,8.23
2023-12-11T01:46:47.844Z,7.15
2023-12-11T01:49:14.701Z,6.93
2023-12-11T01:51:41.445Z,6.60
2023-12-11T01:54:09.101Z,7.28
2023-12-11T01:56:36.731Z,7.65
2023-12-11T01:59:03.533Z,6.25
2023-12-11T02:01:31.196Z,8.10
2023-12-11T02:03:57.953Z,5.78
2023-12-11T02:06:24.461Z,8.27
2023-12-11T02:08:50.994Z,5.47
2023-12-11T02:11:17.600Z,6.45
2023-12-11T02:13:44.156Z,8.93
2023-12-11T02:16:17.437Z,6.13
2023-12-11T02:18:44.752Z,5.72
2023-12-11T02:21:14.553Z,6.90
2023-12-11T02:24:16.477Z,6.70
2023-12-11T02:26:43.954Z,5.78
2023-12-11T02:29:10.474Z,9.05
2023-12-11T02:31:37.367Z,5.65
2023-12-11T02:34:03.907Z,6.35
2023-12-11T02:36:30.479Z,6.63
2023-12-11T02:38:57.033Z,6.03
2023-12-11T02:41:23.457Z,6.57
2023-12-11T02:43:49.930Z,6.18
2023-12-11T02:46:16.621Z,6.32
2023-12-11T02:48:43.346Z,6.63
2023-12-11T02:51:10.005Z,8.63
2023-12-11T02:53:36.726Z,7.03
2023-12-11T02:56:03.388Z,9.10
2023-12-11T02:58:29.845Z,6.85
2023-12-11T03:00:56.346Z,6.40
2023-12-11T03:03:22.861Z,6.85
2023-12-11T03:05:50.570Z,6.70
2023-12-11T03:08:17.186Z,10.10
2023-12-11T03:10:44.869Z,5.53
2023-12-11T03:13:12.471Z,6.43
2023-12-11T03:15:39.077Z,7.07
2023-12-11T03:18:05.776Z,13.00
2023-12-11T03:20:32.463Z,9.43
2023-12-11T03:22:58.944Z,7.60
2023-12-11T03:25:25.472Z,5.45
2023-12-11T03:27:51.979Z,8.30
2023-12-11T03:30:18.564Z,6.72
2023-12-11T03:32:45.084Z,6.03
2023-12-11T03:35:11.630Z,7.97
2023-12-11T03:37:38.125Z,5.78
2023-12-11T03:40:05.703Z,7.78
2023-12-11T03:42:32.415Z,6.45
2023-12-11T03:44:59.432Z,11.55
2023-12-11T03:47:25.954Z,12.73
2023-12-11T03:49:52.743Z,11.70
2023-12-11T03:52:19.416Z,13.10
2023-12-11T03:54:45.893Z,11.98
2023-12-11T03:57:12.386Z,9.60
2023-12-11T03:59:38.990Z,12.50
2023-12-11T04:02:07.088Z,11.50
2023-12-11T04:04:33.960Z,15.23
2023-12-11T04:07:00.571Z,11.75
2023-12-11T04:09:28.211Z,13.23
2023-12-11T04:11:54.742Z,14.25
2023-12-11T04:14:21.645Z,14.18
2023-12-11T04:16:48.122Z,10.20
2023-12-11T04:19:14.714Z,12.95
2023-12-11T04:21:41.410Z,12.48
2023-12-11T04:24:07.995Z,13.68
2023-12-11T04:26:34.616Z,14.85
2023-12-11T04:29:01.134Z,12.70
2023-12-11T04:31:27.678Z,13.18
2023-12-11T04:33:54.488Z,16.25
2023-12-11T04:36:21.096Z,13.60
2023-12-11T04:38:47.674Z,10.43
2023-12-11T04:41:14.143Z,14.73
2023-12-11T04:43:40.920Z,11.15
2023-12-11T04:46:07.377Z,11.35
2023-12-11T04:48:34.418Z,8.70
2023-12-11T04:51:00.998Z,13.18
2023-12-11T04:53:27.494Z,9.18
2023-12-11T04:55:54.045Z,7.40
2023-12-11T04:58:21.404Z,16.08
2023-12-11T05:00:48.287Z,10.07
2023-12-11T05:03:15.008Z,7.60
2023-12-11T05:05:41.687Z,11.18
2023-12-11T05:08:08.181Z,11.90
2023-12-11T05:10:35.150Z,11.90
2023-12-11T05:13:01.697Z,7.47
2023-12-11T05:15:28.178Z,9.10
2023-12-11T05:17:54.798Z,7.88
2023-12-11T05:20:21.334Z,7.25
2023-12-11T05:22:47.801Z,8.80
2023-12-11T05:25:14.530Z,11.10
2023-12-11T05:27:41.185Z,8.50
2023-12-11T05:30:08.494Z,11.30
2023-12-11T05:32:35.378Z,13.15
2023-12-11T05:35:02.162Z,12.30
2023-12-11T05:37:28.935Z,9.25
2023-12-11T05:40:01.792Z,11.55
2023-12-11T05:42:42.041Z,8.93
2023-12-11T05:45:10.045Z,11.55
2023-12-11T05:47:37.348Z,9.13
2023-12-11T05:50:04.272Z,12.27
2023-12-11T05:52:30.756Z,7.68
2023-12-11T05:54:57.275Z,8.30
2023-12-11T05:57:23.748Z,9.82
2023-12-11T05:59:50.227Z,13.75
2023-12-11T06:02:16.881Z,8.68
2023-12-11T06:04:43.358Z,11.50
2023-12-11T06:07:10.023Z,9.45
2023-12-11T06:09:36.587Z,10.10
2023-12-11T06:12:03.250Z,8.90
2023-12-11T06:14:29.712Z,7.93
2023-12-11T06:16:56.237Z,9.30
2023-12-11T06:19:22.773Z,10.50
2023-12-11T06:21:49.400Z,9.38
2023-12-11T06:24:15.836Z,9.57
2023-12-11T06:26:43.476Z,6.35
2023-12-11T06:29:10.092Z,12.88
2023-12-11T06:31:36.512Z,11.57
2023-12-11T06:34:03.299Z,11.38
2023-12-11T06:36:30.145Z,11.88
2023-12-11T06:38:56.876Z,9.35
2023-12-11T06:41:23.468Z,8.32
2023-12-11T06:43:53.974Z,8.65
2023-12-11T06:46:21.059Z,12.20
2023-12-11T06:48:47.785Z,9.98
2023-12-11T06:51:17.687Z,13.07
2023-12-11T06:53:44.360Z,13.65
2023-12-11T06:56:18.917Z,15.35
2023-12-11T06:58:48.356Z,9.02
2023-12-11T07:01:15.275Z,12.90
2023-12-11T07:03:42.295Z,7.72
2023-12-11T07:06:10.373Z,10.73
2023-12-11T07:08:37.805Z,10.55
2023-12-11T07:11:04.744Z,12.52
2023-12-11T07:13:31.336Z,9.70
2023-12-11T07:15:57.909Z,14.15
2023-12-11T07:18:24.525Z,14.13
2023-12-11T07:20:51.147Z,12.35
2023-12-11T07:23:17.782Z,10.45
2023-12-11T07:25:44.661Z,10.35
2023-12-11T07:28:11.334Z,13.90
2023-12-11T07:30:38.106Z,8.55
2023-12-11T07:33:04.752Z,7.53
2023-12-11T07:35:31.189Z,7.75
2023-12-11T07:37:57.675Z,8.18
2023-12-11T07:40:24.259Z,8.15
2023-12-11T07:42:53.534Z,7.03
2023-12-11T07:45:25.432Z,9.68
2023-12-11T07:47:52.176Z,6.68
2023-12-11T07:50:18.746Z,8.88
2023-12-11T07:52:45.291Z,9.57
2023-12-11T07:55:12.418Z,13.82
2023-12-11T07:57:40.972Z,11.57
2023-12-11T08:00:08.958Z,8.70
2023-12-11T08:02:36.693Z,11.10
2023-12-11T08:05:03.885Z,11.38
2023-12-11T08:07:30.753Z,10.02
2023-12-11T08:09:57.698Z,8.65
2023-12-11T08:12:26.894Z,9.07
2023-12-11T08:14:53.541Z,8.50
2023-12-11T08:17:20.043Z,12.27
2023-12-11T08:19:46.657Z,11.40
2023-12-11T08:22:13.259Z,12.07
2023-12-11T08:24:39.935Z,8.43
2023-12-11T08:27:08.388Z,8.30
2023-12-11T08:29:35.880Z,10.35
2023-12-11T08:32:08.401Z,12.43
2023-12-11T08:34:36.834Z,12.38
2023-12-11T08:37:03.550Z,9.38
2023-12-11T08:39:30.025Z,11.38
2023-12-11T08:41:56.462Z,14.43
2023-12-11T08:44:22.973Z,12.27
2023-12-11T08:46:49.443Z,10.80
2023-12-11T08:49:16.136Z,15.05
2023-12-11T08:51:43.216Z,9.32
2023-12-11T08:54:12.128Z,12.93
2023-12-11T08:56:38.692Z,10.45
2023-12-11T08:59:05.110Z,10.25
2023-12-11T09:01:32.315Z,12.38
2023-12-11T09:03:58.991Z,12.05
2023-12-11T09:06:25.600Z,10.15
2023-12-11T09:08:52.119Z,11.02
2023-12-11T09:11:18.584Z,10.95
2023-12-11T09:13:45.074Z,10.63
2023-12-11T09:16:11.554Z,12.63
2023-12-11T09:18:38.195Z,9.35
2023-12-11T09:21:04.838Z,11.75
2023-12-11T09:23:32.560Z,10.02
2023-12-11T09:25:59.024Z,11.93
2023-12-11T09:28:29.015Z,12.88
2023-12-11T09:30:58.092Z,11.98
2023-12-11T09:33:24.709Z,12.68
2023-12-11T09:35:51.902Z,10.75
2023-12-11T09:38:18.393Z,16.73
2023-12-11T09:40:44.933Z,14.30
2023-12-11T09:43:11.415Z,19.33
2023-12-11T09:45:38.930Z,12.65
2023-12-11T09:48:12.014Z,13.90
2023-12-11T09:50:41.860Z,13.32
2023-12-11T09:53:09.679Z,10.13
2023-12-11T09:55:36.420Z,13.43
2023-12-11T09:58:04.828Z,9.73
2023-12-11T10:00:31.353Z,12.85
2023-12-11T10:03:01.620Z,17.23
2023-12-11T10:05:28.356Z,19.85
2023-12-11T10:07:54.977Z,14.43
2023-12-11T10:10:31.285Z,17.63
2023-12-11T10:12:59.404Z,14.15
2023-12-11T10:15:33.985Z,15.30
2023-12-11T10:18:13.077Z,18.30
2023-12-11T10:20:43.868Z,12.32
2023-12-11T10:23:15.107Z,11.88
2023-12-11T10:25:44.446Z,13.55
2023-12-11T10:28:13.105Z,10.48
2023-12-11T10:30:51.186Z,11.82
2023-12-11T10:33:23.299Z,15.00
2023-12-11T10:35:51.116Z,13.63
2023-12-11T10:38:25.428Z,12.20
2023-12-11T10:40:53.294Z,9.32
2023-12-11T10:43:20.756Z,9.63
2023-12-11T10:45:52.017Z,11.75
2023-12-11T10:48:23.487Z,15.20
2023-12-11T10:50:50.436Z,11.15
2023-12-11T10:53:20.018Z,12.48
2023-12-11T10:55:48.094Z,13.48
2023-12-11T10:58:14.949Z,11.60
2023-12-11T11:00:41.937Z,7.22
2023-12-11T11:03:11.638Z,12.10
2023-12-11T11:05:38.533Z,17.10
2023-12-11T11:08:30.556Z,14.15
2023-12-11T11:11:16.084Z,12.82
2023-12-11T11:14:18.470Z,12.07
2023-12-11T11:16:59.999Z,11.30
2023-12-11T11:19:30.529Z,13.82
2023-12-11T11:22:05.142Z,12.63
2023-12-11T11:24:34.258Z,13.32
2023-12-11T11:27:01.671Z,15.15
2023-12-11T11:29:42.290Z,7.63
2023-12-11T11:32:10.371Z,9.20
2023-12-11T11:34:43.524Z,13.82
2023-12-11T11:37:56.331Z,17.83
2023-12-11T11:40:35.619Z,11.20
2023-12-11T11:43:02.365Z,12.63
2023-12-11T11:45:29.427Z,11.05
2023-12-11T11:47:56.041Z,12.30
2023-12-11T11:50:22.738Z,14.10
2023-12-11T11:53:00.949Z,13.98
2023-12-11T11:55:28.962Z,10.60
2023-12-11T11:57:56.120Z,9.73
2023-12-11T12:00:29.218Z,12.70
2023-12-11T12:03:05.513Z,12.05
2023-12-11T12:05:32.918Z,14.50
2023-12-11T12:07:59.480Z,14.55
2023-12-11T12:10:26.442Z,9.63
2023-12-11T12:12:57.438Z,10.73
2023-12-11T12:15:24.091Z,10.93
2023-12-11T12:17:50.793Z,8.82
2023-12-11T12:20:18.331Z,15.38
2023-12-11T12:23:01.293Z,10.50
2023-12-11T12:25:28.725Z,13.15
2023-12-11T12:27:59.755Z,10.43
2023-12-11T12:30:28.661Z,11.68
2023-12-11T12:32:56.967Z,11.50
2023-12-11T12:35:24.896Z,15.70
2023-12-11T12:37:52.882Z,10.80
2023-12-11T12:40:19.489Z,13.93
2023-12-11T12:42:46.222Z,14.02
2023-12-11T12:45:33.619Z,14.23
2023-12-11T12:48:02.566Z,12.35
2023-12-11T12:50:29.188Z,13.48
2023-12-11T12:53:11.632Z,14.90
2023-12-11T12:55:40.216Z,11.75
2023-12-11T12:58:08.710Z,10.93
2023-12-11T13:00:35.863Z,11.02
2023-12-11T13:03:08.796Z,12.93
2023-12-11T13:08:08.165Z,12.97
2023-12-11T13:10:34.878Z,15.45
2023-12-11T13:13:08.571Z,18.48
2023-12-11T13:15:36.312Z,12.57
2023-12-11T13:18:03.048Z,16.38
2023-12-11T13:20:29.748Z,15.23
2023-12-11T13:22:56.566Z,9.63
2023-12-11T13:25:23.106Z,9.88
2023-12-11T13:27:49.553Z,11.07
2023-12-11T13:30:17.768Z,14.88
2023-12-11T13:32:44.695Z,11.73
2023-12-11T13:35:11.963Z,8.45
2023-12-11T13:37:38.738Z,10.02
2023-12-11T13:40:08.832Z,12.10
2023-12-11T13:42:35.556Z,14.80
2023-12-11T13:45:02.910Z,15.52
2023-12-11T13:47:30.024Z,15.77
2023-12-11T13:49:56.966Z,12.15
2023-12-11T13:52:23.538Z,10.98
2023-12-11T13:54:51.077Z,14.35
2023-12-11T13:57:22.395Z,15.65
2023-12-11T13:59:50.228Z,12.27
2023-12-11T14:02:17.524Z,14.43
2023-12-11T14:05:05.155Z,12.15
2023-12-11T14:07:32.209Z,9.10
2023-12-11T14:09:59.065Z,11.02
2023-12-11T14:12:25.739Z,12.05
2023-12-11T14:14:52.181Z,10.38
2023-12-11T14:17:18.603Z,12.85
2023-12-11T14:19:45.405Z,7.32
2023-12-11T14:22:11.970Z,13.25
2023-12-11T14:24:38.506Z,12.98
2023-12-11T14:27:05.169Z,12.77
2023-12-11T14:29:31.628Z,14.23
2023-12-11T14:31:58.026Z,10.55
2023-12-11T14:34:24.722Z,10.70
2023-12-11T14:36:51.272Z,11.13
2023-12-11T14:39:17.697Z,13.07
2023-12-11T14:41:44.972Z,10.82
2023-12-11T14:44:11.867Z,10.55
2023-12-11T14:46:39.788Z,15.40
2023-12-11T14:49:06.851Z,14.90
2023-12-11T14:51:33.517Z,14.02
2023-12-11T14:54:02.363Z,11.25
2023-12-11T14:56:28.787Z,12.57
2023-12-11T14:58:55.215Z,8.30
2023-12-11T15:01:21.798Z,12.75
2023-12-11T15:03:48.373Z,12.18
2023-12-11T15:06:14.792Z,9.20
2023-12-11T15:08:42.838Z,11.52
2023-12-11T15:11:09.596Z,14.23
2023-12-11T15:13:35.988Z,13.90
2023-12-11T15:16:02.965Z,8.00
2023-12-11T15:18:29.692Z,14.55
2023-12-11T15:20:57.165Z,10.50
2023-12-11T15:23:23.669Z,14.50
2023-12-11T15:25:50.339Z,12.38
2023-12-11T15:28:16.864Z,15.13
2023-12-11T15:30:43.589Z,13.20
2023-12-11T15:33:10.098Z,11.55
2023-12-11T15:35:38.112Z,13.50
2023-12-11T15:38:04.545Z,11.85
2023-12-11T15:40:31.046Z,9.25
2023-12-11T15:42:57.564Z,10.38
2023-12-11T15:45:24.026Z,11.45
2023-12-11T15:48:01.003Z,9.43
2023-12-11T15:50:30.241Z,11.35
2023-12-11T15:52:58.476Z,9.30
2023-12-11T15:55:24.990Z,12.25
2023-12-11T15:57:53.187Z,12.00
2023-12-11T16:00:20.180Z,11.18
2023-12-11T16:02:46.788Z,10.85
2023-12-11T16:05:13.486Z,16.33
2023-12-11T16:07:40.139Z,8.75
2023-12-11T16:10:07.430Z,9.80
2023-12-11T16:12:33.901Z,11.65
2023-12-11T16:15:00.494Z,9.75
2023-12-11T16:17:26.926Z,14.05
2023-12-11T16:19:53.561Z,11.15
2023-12-11T16:22:21.538Z,12.88
2023-12-11T16:24:48.742Z,10.93
2023-12-11T16:27:19.472Z,14.90
2023-12-11T16:29:45.916Z,13.23
2023-12-11T16:32:12.351Z,15.75
2023-12-11T16:34:38.897Z,17.70
2023-12-11T16:37:05.535Z,18.10
2023-12-11T16:39:32.029Z,16.08
2023-12-11T16:41:58.457Z,14.57
2023-12-11T16:44:25.032Z,14.68
2023-12-11T16:46:51.457Z,14.98
2023-12-11T16:49:18.088Z,15.88
2023-12-11T16:51:44.933Z,18.27
2023-12-11T16:54:11.471Z,15.35
2023-12-11T16:56:39.869Z,17.00
2023-12-11T16:59:06.449Z,18.45
2023-12-11T17:01:32.894Z,17.70
2023-12-11T17:03:59.552Z,17.58
2023-12-11T17:06:26.306Z,15.57
2023-12-11T17:08:52.732Z,10.07
2023-12-11T17:11:19.169Z,14.70
2023-12-11T17:13:45.634Z,13.63
2023-12-11T17:16:12.128Z,19.38
2023-12-11T17:18:38.709Z,14.25
2023-12-11T17:21:06.858Z,14.38
2023-12-11T17:23:33.939Z,17.60
2023-12-11T17:26:01.070Z,14.63
2023-12-11T17:28:27.654Z,13.30
2023-12-11T17:30:54.203Z,14.43
2023-12-11T17:33:20.672Z,14.80
2023-12-11T17:35:47.113Z,15.73
2023-12-11T17:38:13.640Z,13.65
2023-12-11T17:40:40.060Z,14.80
2023-12-11T17:43:06.511Z,11.52
2023-12-11T17:45:33.451Z,12.13
2023-12-11T17:48:02.083Z,14.18
2023-12-11T17:50:28.610Z,13.88
2023-12-11T17:52:55.080Z,13.55
2023-12-11T17:55:21.501Z,12.15
2023-12-11T17:57:48.619Z,15.93
2023-12-11T18:00:18.067Z,13.23
2023-12-11T18:02:44.498Z,13.43
2023-12-11T18:05:11.074Z,14.30
2023-12-11T18:07:37.627Z,20.38
2023-12-11T18:10:04.672Z,17.67
2023-12-11T18:12:31.134Z,16.45
2023-12-11T18:14:57.506Z,15.07
2023-12-11T18:17:24.191Z,13.30
2023-12-11T18:19:50.681Z,17.02
2023-12-11T18:22:17.475Z,15.15
2023-12-11T18:24:43.982Z,17.15
2023-12-11T18:27:10.392Z,14.55
2023-12-11T18:29:38.061Z,10.23
2023-12-11T18:32:04.914Z,15.27
2023-12-11T18:34:39.896Z,12.00
2023-12-11T18:37:14.383Z,16.17
2023-12-11T18:39:41.967Z,13.40
2023-12-11T18:42:08.388Z,11.55
2023-12-11T18:44:34.810Z,10.75
2023-12-11T18:47:01.398Z,10.77
2023-12-11T18:49:27.991Z,13.57
2023-12-11T18:51:54.668Z,14.18
2023-12-11T18:54:21.115Z,13.70
2023-12-11T18:56:47.523Z,11.95
2023-12-11T18:59:15.079Z,10.55
2023-12-11T19:01:41.766Z,14.02
2023-12-11T19:04:10.105Z,11.63
2023-12-11T19:06:37.026Z,12.75
2023-12-11T19:09:03.442Z,12.00
2023-12-11T19:11:29.870Z,9.07
2023-12-11T19:13:56.442Z,11.80
2023-12-11T19:16:23.040Z,18.40
2023-12-11T19:18:49.733Z,13.32
2023-12-11T19:21:16.453Z,13.02
2023-12-11T19:23:42.967Z,11.27
2023-12-11T19:26:10.316Z,12.65
2023-12-11T19:28:37.787Z,11.07
2023-12-11T19:31:04.723Z,14.82
2023-12-11T19:33:31.264Z,14.85
2023-12-11T19:35:57.817Z,7.78
2023-12-11T19:38:24.319Z,20.45
2023-12-11T19:40:50.744Z,15.57
2023-12-11T19:43:17.240Z,13.55
2023-12-11T19:45:43.672Z,14.23
2023-12-11T19:48:10.337Z,11.25
2023-12-11T19:50:37.056Z,14.20
2023-12-11T19:53:03.483Z,20.10
2023-12-11T19:55:29.946Z,15.60
2023-12-11T19:57:56.645Z,13.98
2023-12-11T20:00:23.258Z,18.77
2023-12-11T20:02:49.660Z,17.85
2023-12-11T20:05:16.304Z,16.77
2023-12-11T20:07:42.719Z,19.63
2023-12-11T20:10:10.056Z,13.13
2023-12-11T20:12:39.557Z,21.15
2023-12-11T20:15:06.455Z,17.58
2023-12-11T20:17:34.385Z,17.63
2023-12-11T20:20:05.242Z,18.73
2023-12-11T20:22:32.613Z,18.02
2023-12-11T20:24:59.148Z,16.35
2023-12-11T20:27:25.572Z,22.08
2023-12-11T20:29:52.021Z,17.23
2023-12-11T20:32:18.659Z,13.02
2023-12-11T20:34:45.100Z,12.82
2023-12-11T20:37:12.872Z,14.80
2023-12-11T20:39:40.339Z,15.77
2023-12-11T20:42:06.802Z,13.43
2023-12-11T20:44:33.233Z,17.92
2023-12-11T20:46:59.657Z,19.95
2023-12-11T20:49:26.178Z,22.58
2023-12-11T20:51:52.694Z,21.00
2023-12-11T20:54:19.172Z,21.58
2023-12-11T20:56:45.664Z,16.83
2023-12-11T20:59:12.122Z,13.38
2023-12-11T21:01:39.346Z,12.60
2023-12-11T21:04:08.024Z,19.33
2023-12-11T21:06:35.094Z,19.02
2023-12-11T21:09:05.676Z,12.38
2023-12-11T21:11:32.650Z,16.58
2023-12-11T21:13:59.515Z,15.30
2023-12-11T21:16:25.987Z,17.67
2023-12-11T21:18:52.859Z,15.77
2023-12-11T21:21:21.737Z,20.48
2023-12-11T21:23:49.610Z,17.25
2023-12-11T21:26:26.432Z,16.30
2023-12-11T21:28:54.605Z,16.15
2023-12-11T21:31:34.253Z,24.17
2023-12-11T21:34:01.133Z,20.40
2023-12-11T21:36:31.138Z,26.27
2023-12-11T21:39:06.042Z,17.98
2023-12-11T21:41:34.247Z,14.30
2023-12-11T21:44:01.430Z,16.20
2023-12-11T21:46:28.004Z,27.55
2023-12-11T21:48:57.996Z,18.70
2023-12-11T21:51:26.907Z,27.42
2023-12-11T21:53:53.601Z,20.75
2023-12-11T21:56:21.860Z,22.42
2023-12-11T21:58:50.102Z,13.80
2023-12-11T22:01:16.712Z,17.25
2023-12-11T22:03:43.185Z,17.95
2023-12-11T22:06:12.637Z,18.88
2023-12-11T22:08:39.084Z,16.33
2023-12-11T22:11:05.518Z,19.60
2023-12-11T22:13:31.978Z,18.80
2023-12-11T22:15:58.491Z,18.17
2023-12-11T22:18:25.068Z,20.27
2023-12-11T22:20:51.566Z,14.77
2023-12-11T22:23:17.969Z,14.70
2023-12-11T22:25:44.364Z,19.35
2023-12-11T22:28:10.963Z,16.40
2023-12-11T22:30:37.596Z,15.50
2023-12-11T22:33:04.161Z,18.65
2023-12-11T22:35:30.635Z,18.30
2023-12-11T22:37:57.022Z,19.20
2023-12-11T22:40:23.545Z,18.13
2023-12-11T22:42:50.068Z,15.15
2023-12-11T22:45:17.860Z,14.07
2023-12-11T22:47:44.761Z,16.25
2023-12-11T22:50:11.535Z,13.60
2023-12-11T22:52:37.921Z,19.17
2023-12-11T22:55:05.178Z,16.58
2023-12-11T22:57:32.361Z,17.65
2023-12-11T23:00:02.061Z,18.08
2023-12-11T23:02:28.958Z,17.40
2023-12-11T23:05:02.414Z,15.43
2023-12-11T23:07:30.476Z,19.42
2023-12-11T23:09:58.034Z,18.63
2023-12-11T23:12:24.834Z,16.90
2023-12-11T23:14:51.954Z,14.68
2023-12-11T23:17:19.029Z,26.48
2023-12-11T23:19:49.527Z,16.60
2023-12-11T23:22:17.041Z,19.27
2023-12-11T23:24:44.578Z,14.65
2023-12-11T23:27:11.810Z,13.95
2023-12-11T23:29:38.924Z,18.30
2023-12-11T23:32:08.658Z,17.27
2023-12-11T23:34:35.966Z,19.05
2023-12-11T23:37:08.170Z,13.75
2023-12-11T23:39:35.430Z,21.30
2023-12-11T23:42:08.832Z,11.95
2023-12-11T23:44:35.391Z,16.58
2023-12-11T23:47:01.918Z,19.42
2023-12-11T23:49:28.436Z,17.27
2023-12-11T23:51:54.884Z,14.93
2023-12-11T23:54:21.326Z,20.88
2023-12-11T23:56:47.707Z,17.58
2023-12-11T23:59:14.121Z,17.10
